createdAt,value
2023-09-26T00:01:12.251Z,13.59
2023-09-26T00:05:13.975Z,13.62
2023-09-26T00:09:15.690Z,13.41
2023-09-26T00:13:17.464Z,13.20
2023-09-26T00:17:20.508Z,13.25
2023-09-26T00:21:21.946Z,13.07
2023-09-26T00:25:24.219Z,13.13
2023-09-26T00:29:26.095Z,12.98
2023-09-26T00:33:28.934Z,12.83
2023-09-26T00:37:30.566Z,12.87
2023-09-26T00:41:32.185Z,12.79
2023-09-26T00:45:33.917Z,12.73
2023-09-26T00:49:37.241Z,12.57
2023-09-26T00:53:40.512Z,12.51
2023-09-26T00:57:42.966Z,12.58
2023-09-26T01:01:44.954Z,12.47
2023-09-26T01:05:48.301Z,12.44
2023-09-26T01:09:50.894Z,12.40
2023-09-26T01:13:52.702Z,12.37
2023-09-26T01:17:54.247Z,12.30
2023-09-26T01:21:57.139Z,12.30
2023-09-26T01:26:00.280Z,12.42
2023-09-26T01:30:01.834Z,12.19
2023-09-26T01:34:05.123Z,12.32
2023-09-26T01:38:06.807Z,12.43
2023-09-26T01:42:09.627Z,12.43
2023-09-26T01:46:12.349Z,12.30
2023-09-26T01:50:15.193Z,12.26
2023-09-26T01:54:16.695Z,12.13
2023-09-26T01:58:20.030Z,12.21
2023-09-26T02:02:21.756Z,12.07
2023-09-26T02:06:23.365Z,12.09
2023-09-26T02:10:25.130Z,12.24
2023-09-26T02:14:29.452Z,12.25
2023-09-26T02:18:31.240Z,12.37
2023-09-26T02:22:34.264Z,12.41
2023-09-26T02:26:36.006Z,12.35
2023-09-26T02:30:38.821Z,12.28
2023-09-26T02:34:40.347Z,12.13
2023-09-26T02:38:41.850Z,12.03
2023-09-26T02:42:44.151Z,12.02
2023-09-26T02:46:47.339Z,12.05
2023-09-26T02:50:49.080Z,11.92
2023-09-26T02:54:50.901Z,11.95
2023-09-26T02:58:53.381Z,11.82
2023-09-26T03:02:56.170Z,11.81
2023-09-26T03:06:58.404Z,11.77
2023-09-26T03:11:00.301Z,11.88
2023-09-26T03:15:01.911Z,11.93
2023-09-26T03:19:05.506Z,11.95
2023-09-26T03:23:07.284Z,11.89
2023-09-26T03:27:08.722Z,11.93
2023-09-26T03:31:10.805Z,11.80
2023-09-26T03:35:13.900Z,11.63
2023-09-26T03:39:15.540Z,11.81
2023-09-26T03:43:17.048Z,11.61
2023-09-26T03:47:18.621Z,11.47
2023-09-26T03:51:21.603Z,11.53
2023-09-26T03:55:23.949Z,11.53
2023-09-26T03:59:25.504Z,11.35
2023-09-26T04:03:28.261Z,11.27
2023-09-26T04:07:31.461Z,11.42
2023-09-26T04:11:33.077Z,11.39
2023-09-26T04:15:37.762Z,11.38
2023-09-26T04:19:39.413Z,11.39
2023-09-26T04:23:42.877Z,11.52
2023-09-26T04:27:44.310Z,11.37
2023-09-26T04:31:46.335Z,11.38
2023-09-26T04:35:56.106Z,11.22
2023-09-26T04:39:59.744Z,11.14
2023-09-26T04:44:01.205Z,11.10
2023-09-26T04:48:03.322Z,11.13
2023-09-26T04:52:06.393Z,11.22
2023-09-26T04:56:10.239Z,11.20
2023-09-26T05:00:13.574Z,11.19
2023-09-26T05:04:15.547Z,11.18
2023-09-26T05:08:17.516Z,11.04
2023-09-26T05:12:20.629Z,11.03
2023-09-26T05:16:22.417Z,10.98
2023-09-26T05:20:24.124Z,10.99
2023-09-26T05:24:25.575Z,11.18
2023-09-26T05:28:29.212Z,11.07
2023-09-26T05:32:31.743Z,11.15
2023-09-26T05:36:33.531Z,11.19
2023-09-26T05:40:35.060Z,11.10
2023-09-26T05:44:38.380Z,11.06
2023-09-26T05:48:40.827Z,11.10
2023-09-26T05:52:42.539Z,11.08
2023-09-26T05:56:43.978Z,11.18
2023-09-26T06:00:48.582Z,11.15
2023-09-26T06:04:50.135Z,11.25
2023-09-26T06:08:53.077Z,11.36
2023-09-26T06:12:56.472Z,11.35
2023-09-26T06:16:59.963Z,11.48
2023-09-26T06:21:04.219Z,11.41
2023-09-26T06:25:06.345Z,11.57
2023-09-26T06:29:07.833Z,11.61
2023-09-26T06:33:13.333Z,11.76
2023-09-26T06:37:15.234Z,11.76
2023-09-26T06:41:17.762Z,11.80
2023-09-26T06:45:19.516Z,11.85
2023-09-26T06:49:22.575Z,12.00
2023-09-26T06:53:24.114Z,12.20
2023-09-26T06:57:25.608Z,12.89
2023-09-26T07:01:27.303Z,14.38
2023-09-26T07:05:30.225Z,16.30
2023-09-26T07:09:31.965Z,16.81
2023-09-26T07:13:47.915Z,17.44
2023-09-26T07:17:55.770Z,18.93
2023-09-26T07:21:59.023Z,20.48
2023-09-26T07:26:12.047Z,21.34
2023-09-26T07:30:15.943Z,21.19
2023-09-26T07:34:17.688Z,21.59
2023-09-26T07:38:20.835Z,21.17
2023-09-26T07:42:22.676Z,20.80
2023-09-26T07:46:24.289Z,19.48
2023-09-26T07:50:25.963Z,18.66
2023-09-26T07:54:28.803Z,18.80
2023-09-26T07:58:30.305Z,18.64
2023-09-26T08:02:31.879Z,18.32
2023-09-26T08:06:33.618Z,18.25
2023-09-26T08:10:38.586Z,17.69
2023-09-26T08:14:40.070Z,17.32
2023-09-26T08:18:42.923Z,16.76
2023-09-26T08:22:44.700Z,16.69
2023-09-26T08:26:51.085Z,16.87
2023-09-26T08:30:52.927Z,16.89
2023-09-26T08:34:56.669Z,16.89
2023-09-26T08:38:58.160Z,16.84
2023-09-26T08:43:01.271Z,17.23
2023-09-26T08:47:03.279Z,17.18
2023-09-26T08:51:05.159Z,17.23
2023-09-26T08:55:07.439Z,17.36
2023-09-26T08:59:10.853Z,17.50
2023-09-26T09:03:13.844Z,17.57
2023-09-26T09:07:15.919Z,17.66
2023-09-26T09:11:32.244Z,17.83
2023-09-26T09:15:35.133Z,17.90
2023-09-26T09:19:45.192Z,18.40
2023-09-26T09:23:47.231Z,18.95
2023-09-26T09:27:51.079Z,19.62
2023-09-26T09:31:54.241Z,21.41
2023-09-26T09:35:56.978Z,22.44
2023-09-26T09:39:59.254Z,22.71
2023-09-26T09:44:00.792Z,23.46
2023-09-26T09:48:04.918Z,24.54
2023-09-26T09:52:10.229Z,24.99
2023-09-26T09:56:14.628Z,25.20
2023-09-26T10:00:17.344Z,26.40
2023-09-26T10:04:21.655Z,26.45
2023-09-26T10:08:24.424Z,26.94
2023-09-26T10:12:31.135Z,27.57
2023-09-26T10:16:37.468Z,27.77
2023-09-26T10:20:52.030Z,27.89
2023-09-26T10:24:55.546Z,27.26
2023-09-26T10:29:01.605Z,28.26
2023-09-26T10:33:03.278Z,28.37
2023-09-26T10:37:08.894Z,27.95
2023-09-26T10:41:10.401Z,28.67
2023-09-26T10:45:12.633Z,28.52
2023-09-26T10:49:14.389Z,29.03
2023-09-26T10:53:18.653Z,29.41
2023-09-26T10:57:20.347Z,29.24
2023-09-26T11:01:37.257Z,29.84
2023-09-26T11:05:39.213Z,30.39
2023-09-26T11:09:43.750Z,29.32
2023-09-26T11:13:45.514Z,28.43
2023-09-26T11:17:50.008Z,28.87
2023-09-26T11:21:51.760Z,31.21
2023-09-26T11:25:54.928Z,30.48
2023-09-26T11:29:56.620Z,29.42
2023-09-26T11:33:58.924Z,32.20
2023-09-26T11:38:00.578Z,32.00
2023-09-26T11:42:04.744Z,32.84
2023-09-26T11:46:06.971Z,32.35
2023-09-26T11:50:09.726Z,30.23
2023-09-26T11:54:11.948Z,30.90
2023-09-26T11:58:16.265Z,31.16
2023-09-26T12:02:18.030Z,29.68
2023-09-26T12:06:19.572Z,30.08
2023-09-26T12:10:22.984Z,31.76
2023-09-26T12:14:25.790Z,33.75
2023-09-26T12:18:27.288Z,32.71
2023-09-26T12:22:29.097Z,31.44
2023-09-26T12:26:32.289Z,31.90
2023-09-26T12:30:35.174Z,35.92
2023-09-26T12:34:37.252Z,37.01
2023-09-26T12:38:39.898Z,35.04
2023-09-26T12:42:42.056Z,31.89
2023-09-26T12:46:44.883Z,33.45
2023-09-26T12:50:46.739Z,31.85
2023-09-26T12:54:49.140Z,29.66
2023-09-26T12:58:50.616Z,28.05
2023-09-26T13:02:53.748Z,26.26
2023-09-26T13:06:55.353Z,27.00
2023-09-26T13:10:56.935Z,27.08
2023-09-26T13:14:58.852Z,26.40
2023-09-26T13:19:02.000Z,25.72
2023-09-26T13:23:03.658Z,25.89
2023-09-26T13:27:05.731Z,26.04
2023-09-26T13:31:08.480Z,25.15
2023-09-26T13:35:11.418Z,25.32
2023-09-26T13:39:12.910Z,25.11
2023-09-26T13:43:14.352Z,25.19
2023-09-26T13:47:16.379Z,25.10
2023-09-26T13:51:20.342Z,25.22
2023-09-26T13:55:21.872Z,25.06
2023-09-26T13:59:23.532Z,24.97
2023-09-26T14:03:25.702Z,25.04
2023-09-26T14:07:28.782Z,24.72
2023-09-26T14:11:30.326Z,24.53
2023-09-26T14:15:31.870Z,24.46
2023-09-26T14:19:34.067Z,24.47
2023-09-26T14:23:37.092Z,24.64
2023-09-26T14:27:39.018Z,24.45
2023-09-26T14:31:41.855Z,24.34
2023-09-26T14:35:44.410Z,24.32
2023-09-26T14:39:47.303Z,24.26
2023-09-26T14:43:49.115Z,24.14
2023-09-26T14:47:50.726Z,24.08
2023-09-26T14:51:52.460Z,23.85
2023-09-26T14:55:55.444Z,24.13
2023-09-26T14:59:57.242Z,24.13
2023-09-26T15:03:58.773Z,23.95
2023-09-26T15:08:00.305Z,24.10
2023-09-26T15:12:03.156Z,24.28
2023-09-26T15:16:05.954Z,24.28
2023-09-26T15:20:08.400Z,24.30
2023-09-26T15:24:09.918Z,24.31
2023-09-26T15:28:14.119Z,24.03
2023-09-26T15:32:15.615Z,24.14
2023-09-26T15:36:17.270Z,24.09
2023-09-26T15:40:18.917Z,24.08
2023-09-26T15:44:21.847Z,23.96
2023-09-26T15:48:23.393Z,24.09
2023-09-26T15:52:24.928Z,23.79
2023-09-26T15:56:28.822Z,23.69
2023-09-26T16:00:32.246Z,23.39
2023-09-26T16:04:33.845Z,23.22
2023-09-26T16:08:35.735Z,23.21
2023-09-26T16:12:42.971Z,23.26
2023-09-26T16:16:50.144Z,23.07
2023-09-26T16:20:51.900Z,22.90
2023-09-26T16:24:53.598Z,22.87
2023-09-26T16:28:55.386Z,22.64
2023-09-26T16:32:58.703Z,22.65
2023-09-26T16:37:00.439Z,22.51
2023-09-26T16:41:02.001Z,22.36
2023-09-26T16:45:04.613Z,22.30
2023-09-26T16:49:07.461Z,22.21
2023-09-26T16:53:08.972Z,22.11
2023-09-26T16:57:10.432Z,21.90
2023-09-26T17:01:13.552Z,21.95
2023-09-26T17:05:18.757Z,21.71
2023-09-26T17:09:20.474Z,21.61
2023-09-26T17:13:21.959Z,21.56
2023-09-26T17:17:23.477Z,21.52
2023-09-26T17:21:26.805Z,21.42
2023-09-26T17:25:28.540Z,21.31
2023-09-26T17:29:30.303Z,21.22
2023-09-26T17:33:31.853Z,21.13
2023-09-26T17:37:35.577Z,21.10
2023-09-26T17:41:37.069Z,20.98
2023-09-26T17:45:38.628Z,21.01
2023-09-26T17:49:40.406Z,20.91
2023-09-26T17:53:43.527Z,21.07
2023-09-26T17:57:45.003Z,20.95
2023-09-26T18:01:46.848Z,20.76
2023-09-26T18:05:48.621Z,20.69
2023-09-26T18:09:51.595Z,20.58
2023-09-26T18:13:53.157Z,20.68
2023-09-26T18:17:55.358Z,20.63
2023-09-26T18:21:56.862Z,20.61
2023-09-26T18:25:59.885Z,20.56
2023-09-26T18:30:01.620Z,20.61
2023-09-26T18:34:03.382Z,20.57
2023-09-26T18:38:06.548Z,20.47
2023-09-26T18:42:09.412Z,20.53
2023-09-26T18:46:11.002Z,20.40
2023-09-26T18:50:12.693Z,20.26
2023-09-26T18:54:14.220Z,20.25
2023-09-26T18:58:17.296Z,20.19
2023-09-26T19:02:19.292Z,20.19
2023-09-26T19:06:20.880Z,20.09
2023-09-26T19:10:22.600Z,20.02
2023-09-26T19:14:25.772Z,19.94
2023-09-26T19:18:27.548Z,19.78
2023-09-26T19:22:29.034Z,19.65
2023-09-26T19:26:30.684Z,19.51
2023-09-26T19:30:33.802Z,19.42
2023-09-26T19:34:35.386Z,19.42
2023-09-26T19:38:36.931Z,19.46
2023-09-26T19:42:38.421Z,19.37
2023-09-26T19:46:43.009Z,19.17
2023-09-26T19:50:45.603Z,19.01
2023-09-26T19:54:47.288Z,18.92
2023-09-26T19:58:49.146Z,18.87
2023-09-26T20:02:52.313Z,18.70
2023-09-26T20:06:54.880Z,18.54
2023-09-26T20:10:56.362Z,18.40
2023-09-26T20:14:58.895Z,18.43
2023-09-26T20:19:01.727Z,18.29
2023-09-26T20:23:03.273Z,18.21
2023-09-26T20:27:05.048Z,18.15
2023-09-26T20:31:12.831Z,18.04
2023-09-26T20:35:16.203Z,17.89
2023-09-26T20:39:18.161Z,17.82
2023-09-26T20:43:20.180Z,17.69
2023-09-26T20:47:21.925Z,17.59
2023-09-26T20:51:26.212Z,17.51
2023-09-26T20:55:27.696Z,17.48
2023-09-26T20:59:29.458Z,17.30
2023-09-26T21:03:31.112Z,17.25
2023-09-26T21:07:34.339Z,17.13
2023-09-26T21:11:35.817Z,16.99
2023-09-26T21:15:37.406Z,17.00
2023-09-26T21:19:38.879Z,16.81
2023-09-26T21:23:41.665Z,16.73
2023-09-26T21:27:43.179Z,16.69
2023-09-26T21:31:44.916Z,16.70
2023-09-26T21:35:46.451Z,16.52
2023-09-26T21:39:49.618Z,16.52
2023-09-26T21:43:51.441Z,16.47
2023-09-26T21:47:53.029Z,16.37
2023-09-26T21:51:54.867Z,16.42
2023-09-26T21:55:58.394Z,16.35
2023-09-26T21:59:59.914Z,16.26
2023-09-26T22:04:01.382Z,16.18
2023-09-26T22:08:02.896Z,16.20
2023-09-26T22:12:06.545Z,16.24
2023-09-26T22:16:08.741Z,16.19
2023-09-26T22:20:12.712Z,16.16
2023-09-26T22:24:14.232Z,16.03
2023-09-26T22:28:17.241Z,16.08
2023-09-26T22:32:18.960Z,15.97
2023-09-26T22:36:20.585Z,16.00
2023-09-26T22:40:24.423Z,15.90
2023-09-26T22:44:27.314Z,15.92
2023-09-26T22:48:28.910Z,15.76
2023-09-26T22:52:30.595Z,15.69
2023-09-26T22:56:32.385Z,15.69
2023-09-26T23:00:35.498Z,15.60
2023-09-26T23:04:37.233Z,15.55
2023-09-26T23:08:39.249Z,15.46
2023-09-26T23:12:40.728Z,15.46
2023-09-26T23:16:43.810Z,15.44
2023-09-26T23:20:45.565Z,15.39
2023-09-26T23:24:47.151Z,15.38
2023-09-26T23:28:49.178Z,15.35
2023-09-26T23:32:53.591Z,15.41
2023-09-26T23:36:55.071Z,15.23
2023-09-26T23:40:56.856Z,15.21
2023-09-26T23:44:58.789Z,15.14
2023-09-26T23:49:01.866Z,15.13
2023-09-26T23:53:03.783Z,15.10
2023-09-26T23:57:05.490Z,15.04
